Time;durP1;ratioP1;P1;durP2;ratioP2;P2;SDS_P1;SDS_P2;PMS_P1;PMS_P2;Temp;Humidity;BMP_temperature;BMP_pressure;BME280_temperature;BME280_humidity;BME280_pressure;Samples;Min_cycle;Max_cycle;Signal;HPM_P1;HPM_P2
2022/04/07 00:00:24;;;;;;;12.38;5.43;;;;;;;;;;4939156;29;20524;-56
2022/04/07 00:02:50;;;;;;;12.43;4.65;;;;;;;;;;4938208;29;20392;-58
2022/04/07 00:05:17;;;;;;;10.07;4.38;;;;;;;;;;4938686;29;20028;-59
2022/04/07 00:07:43;;;;;;;11.82;4.63;;;;;;;;;;4938817;29;20046;-58
2022/04/07 00:10:09;;;;;;;10.73;4.43;;;;;;;;;;4938451;29;20114;-58
2022/04/07 00:12:37;;;;;;;9.88;4.43;;;;;;;;;;4938660;29;20023;-57
2022/04/07 00:15:03;;;;;;;12.02;4.78;;;;;;;;;;4938607;29;20457;-58
2022/04/07 00:17:29;;;;;;;8.73;4.72;;;;;;;;;;4938162;29;20485;-58
2022/04/07 00:19:55;;;;;;;13.18;5.15;;;;;;;;;;4938353;29;20491;-58
2022/04/07 00:22:22;;;;;;;9.60;4.38;;;;;;;;;;4938741;29;20027;-58
2022/04/07 00:24:48;;;;;;;8.43;4.65;;;;;;;;;;4937804;29;20035;-58
2022/04/07 00:27:14;;;;;;;9.45;4.38;;;;;;;;;;4937899;29;20110;-56
2022/04/07 00:29:40;;;;;;;7.57;4.20;;;;;;;;;;4938156;29;20032;-56
2022/04/07 00:32:07;;;;;;;12.48;4.30;;;;;;;;;;4937909;29;20027;-58
2022/04/07 00:34:33;;;;;;;11.32;4.20;;;;;;;;;;4938306;29;20023;-58
2022/04/07 00:36:59;;;;;;;12.82;4.82;;;;;;;;;;4938168;29;20028;-57
2022/04/07 00:39:25;;;;;;;8.20;4.47;;;;;;;;;;4937593;29;20083;-57
2022/04/07 00:41:52;;;;;;;14.30;4.60;;;;;;;;;;4937751;29;20047;-58
2022/04/07 00:44:21;;;;;;;14.32;4.75;;;;;;;;;;4937714;29;20497;-54
2022/04/07 00:46:48;;;;;;;11.18;4.75;;;;;;;;;;4937852;29;20032;-58
2022/04/07 00:49:14;;;;;;;10.93;5.05;;;;;;;;;;4937651;29;20392;-58
2022/04/07 00:51:41;;;;;;;14.30;5.35;;;;;;;;;;4937195;29;20082;-56
2022/04/07 00:54:11;;;;;;;9.98;4.90;;;;;;;;;;4937835;29;20043;-58
2022/04/07 00:56:38;;;;;;;15.50;4.82;;;;;;;;;;4938066;29;20022;-57
2022/04/07 00:59:07;;;;;;;9.50;4.97;;;;;;;;;;4937221;29;20079;-59
2022/04/07 01:01:33;;;;;;;13.27;5.25;;;;;;;;;;4937418;29;20446;-57
2022/04/07 01:04:00;;;;;;;11.80;4.82;;;;;;;;;;4937700;29;20023;-56
2022/04/07 01:06:27;;;;;;;13.98;5.00;;;;;;;;;;4937289;29;20063;-58
2022/04/07 01:08:53;;;;;;;10.73;4.50;;;;;;;;;;4937341;29;20110;-59
2022/04/07 01:11:19;;;;;;;13.25;4.90;;;;;;;;;;4937208;29;20036;-57
2022/04/07 01:13:46;;;;;;;13.85;4.88;;;;;;;;;;4937211;29;20469;-59
2022/04/07 01:16:13;;;;;;;10.18;4.75;;;;;;;;;;4937374;29;20066;-56
2022/04/07 01:18:40;;;;;;;9.52;4.53;;;;;;;;;;4937891;29;20114;-57
2022/04/07 01:21:08;;;;;;;10.88;4.68;;;;;;;;;;4936963;29;20492;-54
2022/04/07 01:23:35;;;;;;;13.52;4.60;;;;;;;;;;4937430;29;20167;-57
2022/04/07 01:26:05;;;;;;;13.65;5.53;;;;;;;;;;4936986;29;20473;-57
2022/04/07 01:28:31;;;;;;;14.68;5.75;;;;;;;;;;4936891;29;20101;-58
2022/04/07 01:30:57;;;;;;;12.25;5.65;;;;;;;;;;4937050;29;20535;-56
2022/04/07 01:33:24;;;;;;;22.67;7.32;;;;;;;;;;4937175;29;20115;-55
2022/04/07 01:35:51;;;;;;;13.52;5.68;;;;;;;;;;4936795;29;20106;-57
2022/04/07 01:38:18;;;;;;;12.35;4.75;;;;;;;;;;4936479;29;20036;-58
2022/04/07 01:40:45;;;;;;;11.63;4.43;;;;;;;;;;4936548;29;20396;-57
2022/04/07 01:43:13;;;;;;;12.82;4.70;;;;;;;;;;4937020;29;20027;-58
2022/04/07 01:45:40;;;;;;;8.60;3.97;;;;;;;;;;4936663;29;20560;-58
2022/04/07 01:48:08;;;;;;;8.25;3.78;;;;;;;;;;4936624;29;20170;-57
2022/04/07 01:50:35;;;;;;;9.88;3.97;;;;;;;;;;4937214;29;20020;-59
2022/04/07 01:53:01;;;;;;;9.55;4.03;;;;;;;;;;4936501;29;20511;-58
2022/04/07 01:55:28;;;;;;;7.82;3.55;;;;;;;;;;4936576;29;20031;-56
2022/04/07 01:57:55;;;;;;;9.98;4.57;;;;;;;;;;4936810;29;20110;-58
2022/04/07 02:00:21;;;;;;;10.95;4.22;;;;;;;;;;4936780;29;20114;-58
2022/04/07 02:02:47;;;;;;;13.25;4.38;;;;;;;;;;4936019;29;20020;-57
2022/04/07 02:05:15;;;;;;;14.82;5.13;;;;;;;;;;4936598;29;20032;-58
2022/04/07 02:07:42;;;;;;;15.20;4.30;;;;;;;;;;4936712;29;20417;-58
2022/04/07 02:10:09;;;;;;;9.70;4.68;;;;;;;;;;4936322;29;20099;-57
2022/04/07 02:12:37;;;;;;;12.32;5.03;;;;;;;;;;4936661;29;20116;-58
2022/04/07 02:15:04;;;;;;;11.98;5.20;;;;;;;;;;4936573;29;20087;-57
2022/04/07 02:17:30;;;;;;;14.15;5.38;;;;;;;;;;4936006;29;20028;-56
2022/04/07 02:20:00;;;;;;;14.25;5.90;;;;;;;;;;4936442;29;20119;-56
2022/04/07 02:22:29;;;;;;;22.02;11.95;;;;;;;;;;4936122;29;20055;-57
2022/04/07 02:24:58;;;;;;;18.83;10.00;;;;;;;;;;4936163;29;20083;-56
2022/04/07 02:27:25;;;;;;;24.38;9.73;;;;;;;;;;4936661;29;20042;-58
2022/04/07 02:29:51;;;;;;;13.27;7.15;;;;;;;;;;4936401;29;20031;-57
2022/04/07 02:32:18;;;;;;;20.10;7.70;;;;;;;;;;4936452;29;20031;-58
2022/04/07 02:34:44;;;;;;;12.27;6.13;;;;;;;;;;4936590;29;20095;-58
2022/04/07 02:37:11;;;;;;;22.83;7.60;;;;;;;;;;4935859;29;20028;-59
2022/04/07 02:39:37;;;;;;;22.10;8.63;;;;;;;;;;4936132;29;20080;-58
2022/04/07 02:42:03;;;;;;;21.02;7.65;;;;;;;;;;4936161;29;20111;-57
2022/04/07 02:44:30;;;;;;;20.33;8.85;;;;;;;;;;4935246;29;20103;-56
2022/04/07 02:46:56;;;;;;;17.00;8.63;;;;;;;;;;4936236;29;20098;-58
2022/04/07 02:49:22;;;;;;;19.40;9.00;;;;;;;;;;4935974;29;20027;-57
2022/04/07 02:51:50;;;;;;;24.05;9.00;;;;;;;;;;4937701;29;20408;-57
2022/04/07 02:54:16;;;;;;;23.17;9.75;;;;;;;;;;4939977;29;20090;-57
2022/04/07 02:56:42;;;;;;;25.45;11.90;;;;;;;;;;4939696;29;20024;-57
2022/04/07 02:59:08;;;;;;;24.08;11.15;;;;;;;;;;4939165;29;20118;-59
2022/04/07 03:01:34;;;;;;;29.65;14.88;;;;;;;;;;4938588;29;20038;-57
2022/04/07 03:04:01;;;;;;;35.95;14.90;;;;;;;;;;4939527;29;20544;-58
2022/04/07 03:06:27;;;;;;;27.15;13.63;;;;;;;;;;4939163;29;20507;-59
2022/04/07 03:08:53;;;;;;;33.22;16.88;;;;;;;;;;4939991;29;20031;-57
2022/04/07 03:11:19;;;;;;;31.10;15.50;;;;;;;;;;4939601;29;20039;-56
2022/04/07 03:13:45;;;;;;;31.23;14.98;;;;;;;;;;4939288;29;20035;-57
2022/04/07 03:16:11;;;;;;;33.78;15.15;;;;;;;;;;4939757;29;20020;-55
2022/04/07 03:18:38;;;;;;;26.42;10.82;;;;;;;;;;4939753;29;20083;-56
2022/04/07 03:21:04;;;;;;;21.40;8.43;;;;;;;;;;4939781;29;20052;-55
2022/04/07 03:23:30;;;;;;;23.17;9.00;;;;;;;;;;4939166;29;20458;-58
2022/04/07 03:25:56;;;;;;;17.23;8.57;;;;;;;;;;4938898;29;20243;-59
2022/04/07 03:28:22;;;;;;;22.80;9.40;;;;;;;;;;4939136;29;20086;-58
2022/04/07 03:30:48;;;;;;;19.48;8.65;;;;;;;;;;4939396;29;20117;-58
2022/04/07 03:33:15;;;;;;;22.75;8.80;;;;;;;;;;4939085;29;20028;-58
2022/04/07 03:35:42;;;;;;;24.20;8.93;;;;;;;;;;4939238;29;20024;-58
2022/04/07 03:38:08;;;;;;;22.63;9.55;;;;;;;;;;4938966;29;20396;-58
2022/04/07 03:40:35;;;;;;;20.40;9.30;;;;;;;;;;4938870;29;20039;-58
2022/04/07 03:43:04;;;;;;;22.83;9.45;;;;;;;;;;4938908;29;20023;-56
2022/04/07 03:45:31;;;;;;;20.40;9.85;;;;;;;;;;4939009;29;20024;-57
2022/04/07 03:47:57;;;;;;;24.02;9.93;;;;;;;;;;4938517;29;20163;-56
2022/04/07 03:50:24;;;;;;;21.08;9.25;;;;;;;;;;4939034;29;20062;-55
2022/04/07 03:52:50;;;;;;;24.17;10.13;;;;;;;;;;4937498;29;20461;-58
2022/04/07 03:55:17;;;;;;;27.20;11.10;;;;;;;;;;4938571;29;20032;-59
2022/04/07 03:57:43;;;;;;;41.47;17.05;;;;;;;;;;4938807;29;20082;-56
2022/04/07 04:00:09;;;;;;;37.72;14.77;;;;;;;;;;4938587;29;20024;-58
2022/04/07 04:02:35;;;;;;;30.10;14.10;;;;;;;;;;4937894;29;20114;-54
2022/04/07 04:05:01;;;;;;;33.03;14.25;;;;;;;;;;4939505;29;20111;-56
2022/04/07 04:07:28;;;;;;;34.55;13.90;;;;;;;;;;4938434;29;20544;-58
2022/04/07 04:09:54;;;;;;;36.28;15.40;;;;;;;;;;4938347;29;20036;-58
2022/04/07 04:12:20;;;;;;;42.13;16.77;;;;;;;;;;4938386;29;20107;-58
2022/04/07 04:14:46;;;;;;;29.00;13.43;;;;;;;;;;4937988;29;20031;-58
2022/04/07 04:17:13;;;;;;;32.55;14.38;;;;;;;;;;4938530;29;20103;-55
2022/04/07 04:19:39;;;;;;;23.48;10.13;;;;;;;;;;4938499;29;20027;-58
2022/04/07 04:22:05;;;;;;;26.40;9.57;;;;;;;;;;4937968;29;20034;-58
2022/04/07 04:24:31;;;;;;;24.88;11.15;;;;;;;;;;4938198;29;20034;-57
2022/04/07 04:26:57;;;;;;;20.92;9.60;;;;;;;;;;4938171;29;20111;-58
2022/04/07 04:29:23;;;;;;;25.65;9.48;;;;;;;;;;4936509;29;20377;-57
2022/04/07 04:31:49;;;;;;;27.42;10.32;;;;;;;;;;4938318;29;20043;-58
2022/04/07 04:34:16;;;;;;;25.98;9.20;;;;;;;;;;4938261;29;20218;-59
2022/04/07 04:36:44;;;;;;;29.23;8.20;;;;;;;;;;4937776;29;20477;-58
2022/04/07 04:39:10;;;;;;;23.90;7.63;;;;;;;;;;4937807;29;20354;-57
2022/04/07 04:41:37;;;;;;;36.17;8.52;;;;;;;;;;4937680;29;20040;-59
2022/04/07 04:44:03;;;;;;;24.45;6.50;;;;;;;;;;4937785;29;20102;-59
2022/04/07 04:46:32;;;;;;;24.58;5.78;;;;;;;;;;4937632;29;20385;-63
2022/04/07 04:49:00;;;;;;;31.77;8.65;;;;;;;;;;4936835;29;20445;-63
2022/04/07 04:51:29;;;;;;;34.33;16.15;;;;;;;;;;4937161;29;20076;-62
2022/04/07 04:53:57;;;;;;;27.77;7.90;;;;;;;;;;4937579;29;20042;-59
2022/04/07 04:56:23;;;;;;;57.05;22.73;;;;;;;;;;4937062;29;20417;-59
2022/04/07 04:58:49;;;;;;;26.35;8.00;;;;;;;;;;4937662;29;20091;-55
2022/04/07 05:01:16;;;;;;;26.17;8.25;;;;;;;;;;4937851;29;20528;-56
2022/04/07 05:03:42;;;;;;;21.92;8.45;;;;;;;;;;4936928;29;20030;-57
2022/04/07 05:06:08;;;;;;;26.05;9.00;;;;;;;;;;4937629;29;20030;-56
2022/04/07 05:08:34;;;;;;;55.88;22.52;;;;;;;;;;4937224;29;20389;-57
2022/04/07 05:11:00;;;;;;;24.67;9.25;;;;;;;;;;4937234;29;20032;-57
2022/04/07 05:13:27;;;;;;;25.38;9.98;;;;;;;;;;4936408;29;20028;-53
2022/04/07 05:15:53;;;;;;;29.70;12.85;;;;;;;;;;4937415;29;20107;-57
2022/04/07 05:18:19;;;;;;;27.08;11.52;;;;;;;;;;4937051;29;20040;-57
2022/04/07 05:20:45;;;;;;;31.92;11.32;;;;;;;;;;4936199;29;20118;-57
2022/04/07 05:23:11;;;;;;;28.85;10.95;;;;;;;;;;4937138;29;20033;-58
2022/04/07 05:25:37;;;;;;;28.23;12.35;;;;;;;;;;4937334;29;20034;-57
2022/04/07 05:28:04;;;;;;;23.35;8.30;;;;;;;;;;4936734;29;20489;-56
2022/04/07 05:30:30;;;;;;;33.35;8.07;;;;;;;;;;4935900;29;20110;-58
2022/04/07 05:32:56;;;;;;;23.88;9.70;;;;;;;;;;4936707;29;20027;-55
2022/04/07 05:35:26;;;;;;;35.30;9.75;;;;;;;;;;4936950;29;20028;-58
2022/04/07 05:37:57;;;;;;;30.75;11.80;;;;;;;;;;4936824;29;20493;-55
2022/04/07 05:40:23;;;;;;;48.85;19.33;;;;;;;;;;4936896;29;20118;-57
2022/04/07 05:42:50;;;;;;;66.07;30.02;;;;;;;;;;4937286;29;20397;-57
2022/04/07 05:45:16;;;;;;;59.72;24.33;;;;;;;;;;4937111;29;20115;-57
2022/04/07 05:47:42;;;;;;;55.90;18.10;;;;;;;;;;4936717;29;20099;-57
2022/04/07 05:50:09;;;;;;;54.95;23.58;;;;;;;;;;4937233;29;20038;-57
2022/04/07 05:52:35;;;;;;;68.72;26.95;;;;;;;;;;4936547;29;20091;-57
2022/04/07 05:55:01;;;;;;;57.72;23.05;;;;;;;;;;4936715;29;20036;-57
2022/04/07 05:57:30;;;;;;;59.25;21.83;;;;;;;;;;4935994;29;20115;-57
2022/04/07 06:00:01;;;;;;;53.20;19.27;;;;;;;;;;4935966;29;20027;-59
2022/04/07 06:02:27;;;;;;;;;;;;;;;;;;4937532;29;20114;-59
2022/04/07 06:04:53;;;;;;;42.55;11.52;;;;;;;;;;4935013;29;19945;-57
2022/04/07 06:07:19;;;;;;;33.63;9.38;;;;;;;;;;4934000;29;20030;-57
2022/04/07 06:09:46;;;;;;;36.13;9.52;;;;;;;;;;4936758;29;20114;-55
2022/04/07 06:12:12;;;;;;;37.38;10.90;;;;;;;;;;4936325;29;20024;-57
2022/04/07 06:14:38;;;;;;;42.13;14.57;;;;;;;;;;4936367;29;20386;-54
2022/04/07 06:17:04;;;;;;;38.65;12.57;;;;;;;;;;4935470;29;20169;-58
2022/04/07 06:19:30;;;;;;;37.63;13.57;;;;;;;;;;4935948;29;20024;-57
2022/04/07 06:21:56;;;;;;;43.20;14.02;;;;;;;;;;4935634;29;20036;-58
2022/04/07 06:24:23;;;;;;;42.33;15.30;;;;;;;;;;4935185;29;20106;-55
2022/04/07 06:26:50;;;;;;;53.45;20.08;;;;;;;;;;4935437;29;20126;-58
2022/04/07 06:29:16;;;;;;;50.15;21.88;;;;;;;;;;4935575;29;20020;-56
2022/04/07 06:31:42;;;;;;;68.80;23.77;;;;;;;;;;4936127;29;20031;-58
2022/04/07 06:34:08;;;;;;;92.95;32.75;;;;;;;;;;4936475;29;20031;-56
2022/04/07 06:36:34;;;;;;;80.15;32.47;;;;;;;;;;4935909;29;20536;-56
2022/04/07 06:39:01;;;;;;;93.28;37.05;;;;;;;;;;4936090;29;20465;-58
2022/04/07 06:41:27;;;;;;;68.18;23.85;;;;;;;;;;4936673;29;20038;-54
2022/04/07 06:43:53;;;;;;;65.88;24.63;;;;;;;;;;4935765;29;20536;-57
2022/04/07 06:46:19;;;;;;;38.22;13.05;;;;;;;;;;4936564;29;20032;-55
2022/04/07 06:48:45;;;;;;;41.85;11.55;;;;;;;;;;4936000;29;20032;-58
2022/04/07 06:51:12;;;;;;;40.72;9.95;;;;;;;;;;4936068;29;20600;-55
2022/04/07 06:53:38;;;;;;;38.97;9.68;;;;;;;;;;4936246;29;20066;-57
2022/04/07 06:56:04;;;;;;;30.65;9.55;;;;;;;;;;4935669;29;20094;-57
2022/04/07 06:58:30;;;;;;;46.33;15.35;;;;;;;;;;4935877;29;20119;-57
2022/04/07 07:00:56;;;;;;;52.20;18.27;;;;;;;;;;4936153;29;20385;-57
2022/04/07 07:03:23;;;;;;;44.83;15.80;;;;;;;;;;4935659;29;20055;-58
2022/04/07 07:05:49;;;;;;;52.38;19.75;;;;;;;;;;4935879;29;20499;-58
2022/04/07 07:08:17;;;;;;;53.78;20.67;;;;;;;;;;4936202;29;20039;-55
2022/04/07 07:10:45;;;;;;;47.55;14.57;;;;;;;;;;4935721;29;20028;-58
2022/04/07 07:13:13;;;;;;;29.40;9.02;;;;;;;;;;4934883;29;20381;-59
2022/04/07 07:15:39;;;;;;;33.33;9.27;;;;;;;;;;4934480;29;20035;-57
2022/04/07 07:18:06;;;;;;;35.13;8.52;;;;;;;;;;4935589;29;20059;-57
2022/04/07 07:20:32;;;;;;;49.22;16.20;;;;;;;;;;4936023;29;20030;-59
2022/04/07 07:22:58;;;;;;;38.22;14.00;;;;;;;;;;4935488;29;20019;-57
2022/04/07 07:25:24;;;;;;;54.53;17.38;;;;;;;;;;4935403;29;20107;-56
2022/04/07 07:27:51;;;;;;;41.67;14.30;;;;;;;;;;4935948;29;20028;-58
2022/04/07 07:30:17;;;;;;;51.50;15.82;;;;;;;;;;4936479;29;20424;-58
2022/04/07 07:32:47;;;;;;;41.58;15.55;;;;;;;;;;4935420;29;20031;-57
2022/04/07 07:35:14;;;;;;;39.97;11.63;;;;;;;;;;4935559;29;20028;-57
2022/04/07 07:37:53;;;;;;;32.10;9.80;;;;;;;;;;4937273;29;20462;-58
2022/04/07 07:40:23;;;;;;;36.63;10.85;;;;;;;;;;4939359;29;20059;-57
2022/04/07 07:42:50;;;;;;;33.25;9.85;;;;;;;;;;4939180;29;20032;-57
2022/04/07 07:45:18;;;;;;;40.35;12.82;;;;;;;;;;4938872;29;20484;-56
2022/04/07 07:47:44;;;;;;;43.08;15.52;;;;;;;;;;4938690;29;20028;-57
2022/04/07 07:50:10;;;;;;;34.25;11.48;;;;;;;;;;4939101;29;20373;-57
2022/04/07 07:52:36;;;;;;;31.27;10.05;;;;;;;;;;4938730;29;20055;-53
2022/04/07 07:55:03;;;;;;;36.67;13.70;;;;;;;;;;4938963;29;20485;-56
2022/04/07 07:57:30;;;;;;;33.78;10.43;;;;;;;;;;4938420;29;20106;-57
2022/04/07 07:59:57;;;;;;;32.72;7.90;;;;;;;;;;4938019;29;20369;-56
2022/04/07 08:02:23;;;;;;;22.38;7.78;;;;;;;;;;4938814;29;20027;-58
2022/04/07 08:04:49;;;;;;;27.88;8.45;;;;;;;;;;4937190;29;20551;-58
2022/04/07 08:07:16;;;;;;;33.33;7.72;;;;;;;;;;4938528;29;20433;-57
2022/04/07 08:09:42;;;;;;;26.50;9.18;;;;;;;;;;4938252;29;20102;-58
2022/04/07 08:12:08;;;;;;;35.53;8.38;;;;;;;;;;4938103;29;20038;-56
2022/04/07 08:14:34;;;;;;;28.60;8.40;;;;;;;;;;4938400;29;20043;-56
2022/04/07 08:17:00;;;;;;;25.08;7.18;;;;;;;;;;4938852;29;20032;-58
2022/04/07 08:19:27;;;;;;;31.52;7.85;;;;;;;;;;4938228;29;20497;-56
2022/04/07 08:21:53;;;;;;;25.88;9.10;;;;;;;;;;4937898;29;20035;-59
2022/04/07 08:24:22;;;;;;;27.85;6.78;;;;;;;;;;4938386;29;20023;-57
2022/04/07 08:26:48;;;;;;;28.90;6.95;;;;;;;;;;4938185;29;20034;-60
2022/04/07 08:29:15;;;;;;;23.92;5.85;;;;;;;;;;4938632;29;20107;-57
2022/04/07 08:31:41;;;;;;;27.70;6.57;;;;;;;;;;4938345;29;20022;-56
2022/04/07 08:34:07;;;;;;;21.45;6.45;;;;;;;;;;4937875;29;20027;-58
2022/04/07 08:36:33;;;;;;;23.05;4.97;;;;;;;;;;4937982;29;20163;-57
2022/04/07 08:39:00;;;;;;;22.00;7.40;;;;;;;;;;4938522;29;20042;-58
2022/04/07 08:41:31;;;;;;;24.50;7.15;;;;;;;;;;4937918;29;20616;-57
2022/04/07 08:44:00;;;;;;;22.88;6.90;;;;;;;;;;4938693;29;20042;-58
2022/04/07 08:46:28;;;;;;;21.20;5.40;;;;;;;;;;4937746;29;20516;-54
2022/04/07 08:48:56;;;;;;;13.57;3.78;;;;;;;;;;4937596;29;20028;-56
2022/04/07 08:51:23;;;;;;;21.00;4.50;;;;;;;;;;4937699;29;20417;-57
2022/04/07 08:53:51;;;;;;;27.58;8.45;;;;;;;;;;4936577;29;20056;-57
2022/04/07 08:56:17;;;;;;;24.83;8.70;;;;;;;;;;4936497;29;20094;-56
2022/04/07 08:58:43;;;;;;;22.75;5.53;;;;;;;;;;4936980;29;20036;-56
2022/04/07 09:01:09;;;;;;;16.77;4.57;;;;;;;;;;4936367;29;20023;-58
2022/04/07 09:03:35;;;;;;;18.95;5.00;;;;;;;;;;4937151;29;20111;-58
2022/04/07 09:06:03;;;;;;;16.73;4.30;;;;;;;;;;4937076;29;20401;-59
2022/04/07 09:08:30;;;;;;;17.00;4.00;;;;;;;;;;4937172;29;20030;-57
2022/04/07 09:10:57;;;;;;;14.75;4.38;;;;;;;;;;4935901;29;20023;-58
2022/04/07 09:13:24;;;;;;;17.15;4.13;;;;;;;;;;4935726;29;20056;-55
2022/04/07 09:15:50;;;;;;;21.77;4.47;;;;;;;;;;4935582;29;20540;-56
2022/04/07 09:18:24;;;;;;;18.23;4.47;;;;;;;;;;4936943;29;20024;-59
2022/04/07 09:20:50;;;;;;;16.90;6.07;;;;;;;;;;4936947;29;20030;-58
2022/04/07 09:23:20;;;;;;;21.23;4.75;;;;;;;;;;4937095;29;20064;-56
2022/04/07 09:25:49;;;;;;;22.60;4.28;;;;;;;;;;4937655;29;20047;-58
2022/04/07 09:28:27;;;;;;;17.25;4.75;;;;;;;;;;4936983;29;20031;-56
2022/04/07 09:30:54;;;;;;;14.52;3.95;;;;;;;;;;4937007;29;20079;-58
2022/04/07 09:33:23;;;;;;;15.95;4.30;;;;;;;;;;4937287;29;20039;-56
2022/04/07 09:36:00;;;;;;;16.48;4.05;;;;;;;;;;4936943;29;20400;-57
2022/04/07 09:38:27;;;;;;;21.83;5.00;;;;;;;;;;4936805;29;20556;-57
2022/04/07 09:40:53;;;;;;;13.57;3.42;;;;;;;;;;4936294;29;20078;-57
2022/04/07 09:43:21;;;;;;;14.07;3.75;;;;;;;;;;4937254;29;20027;-58
2022/04/07 09:45:47;;;;;;;14.63;3.75;;;;;;;;;;4936719;29;20477;-58
2022/04/07 09:48:19;;;;;;;17.30;5.72;;;;;;;;;;4937326;29;20106;-57
2022/04/07 09:51:02;;;;;;;19.58;4.25;;;;;;;;;;4936674;29;20047;-58
2022/04/07 09:53:36;;;;;;;17.15;3.65;;;;;;;;;;4935966;29;20059;-58
2022/04/07 09:56:02;;;;;;;13.68;3.97;;;;;;;;;;4935313;29;20027;-56
2022/04/07 09:58:29;;;;;;;31.23;10.02;;;;;;;;;;4935410;29;20030;-59
2022/04/07 10:00:59;;;;;;;22.77;5.40;;;;;;;;;;4936536;29;20108;-56
2022/04/07 10:03:26;;;;;;;16.43;3.67;;;;;;;;;;4935735;29;20039;-58
2022/04/07 10:05:52;;;;;;;14.75;4.15;;;;;;;;;;4936174;29;20110;-57
2022/04/07 10:08:19;;;;;;;41.20;13.07;;;;;;;;;;4935813;29;20126;-58
2022/04/07 10:10:46;;;;;;;11.02;3.10;;;;;;;;;;4935374;29;20023;-58
2022/04/07 10:13:12;;;;;;;14.63;3.40;;;;;;;;;;4935911;29;20019;-57
2022/04/07 10:15:39;;;;;;;8.00;2.85;;;;;;;;;;4936355;29;20452;-57
2022/04/07 10:18:11;;;;;;;14.80;2.67;;;;;;;;;;4936671;29;20024;-58
2022/04/07 10:20:40;;;;;;;10.60;1.80;;;;;;;;;;4936326;29;20048;-57
2022/04/07 10:23:25;;;;;;;8.43;2.72;;;;;;;;;;4936350;29;20226;-58
2022/04/07 10:25:51;;;;;;;17.05;3.60;;;;;;;;;;4936308;29;20028;-58
2022/04/07 10:28:19;;;;;;;12.55;2.13;;;;;;;;;;4936560;29;20106;-59
2022/04/07 10:30:49;;;;;;;10.20;2.42;;;;;;;;;;4936477;29;20023;-58
2022/04/07 10:33:34;;;;;;;12.60;2.30;;;;;;;;;;4936342;29;20527;-59
2022/04/07 10:36:01;;;;;;;12.98;2.30;;;;;;;;;;4936225;29;20762;-59
2022/04/07 10:38:37;;;;;;;16.40;3.40;;;;;;;;;;4936010;29;20035;-59
2022/04/07 10:41:04;;;;;;;10.85;2.90;;;;;;;;;;4936172;29;20062;-58
2022/04/07 10:43:30;;;;;;;12.80;2.88;;;;;;;;;;4936971;29;20024;-59
2022/04/07 10:46:02;;;;;;;14.65;3.13;;;;;;;;;;4937254;29;20098;-57
2022/04/07 10:48:29;;;;;;;7.82;2.17;;;;;;;;;;4935843;29;20473;-58
2022/04/07 10:50:58;;;;;;;12.15;2.78;;;;;;;;;;4936382;29;20052;-58
2022/04/07 10:53:29;;;;;;;22.85;3.15;;;;;;;;;;4936047;29;20048;-58
2022/04/07 10:55:56;;;;;;;12.27;2.72;;;;;;;;;;4935982;29;20020;-57
2022/04/07 10:58:41;;;;;;;10.07;2.42;;;;;;;;;;4936148;29;20042;-60
2022/04/07 11:01:07;;;;;;;18.15;3.00;;;;;;;;;;4935959;29;20058;-58
2022/04/07 11:03:35;;;;;;;19.52;3.45;;;;;;;;;;4935928;29;20500;-58
2022/04/07 11:06:04;;;;;;;14.35;3.33;;;;;;;;;;4934990;29;20028;-57
2022/04/07 11:08:30;;;;;;;11.73;3.75;;;;;;;;;;4935678;29;20028;-58
2022/04/07 11:10:56;;;;;;;14.85;3.90;;;;;;;;;;4935856;29;20034;-57
2022/04/07 11:13:42;;;;;;;20.77;4.70;;;;;;;;;;4939032;29;20024;-56
2022/04/07 11:16:14;;;;;;;14.23;3.00;;;;;;;;;;4939433;29;20024;-57
2022/04/07 11:18:41;;;;;;;18.10;3.45;;;;;;;;;;4939633;29;20087;-57
2022/04/07 11:21:12;;;;;;;16.05;3.75;;;;;;;;;;4939440;29;20094;-57
2022/04/07 11:23:42;;;;;;;18.33;3.97;;;;;;;;;;4939286;29;20536;-56
2022/04/07 11:26:12;;;;;;;17.90;3.63;;;;;;;;;;4939235;29;20395;-57
2022/04/07 11:28:38;;;;;;;20.67;3.78;;;;;;;;;;4939485;29;20035;-56
2022/04/07 11:31:05;;;;;;;18.25;4.20;;;;;;;;;;4939224;29;20030;-59
2022/04/07 11:33:31;;;;;;;18.38;4.53;;;;;;;;;;4939501;29;20369;-57
2022/04/07 11:36:00;;;;;;;12.82;3.72;;;;;;;;;;4939277;29;20386;-58
2022/04/07 11:38:55;;;;;;;23.15;8.00;;;;;;;;;;4939302;29;20031;-58
2022/04/07 11:41:21;;;;;;;15.90;4.10;;;;;;;;;;4931111;29;20062;-56
2022/04/07 11:43:49;;;;;;;18.92;5.53;;;;;;;;;;4939243;29;20020;-55
2022/04/07 11:46:15;;;;;;;17.17;5.03;;;;;;;;;;4939315;29;20024;-56
2022/04/07 11:48:42;;;;;;;29.83;6.20;;;;;;;;;;4939246;29;20056;-58
2022/04/07 11:51:12;;;;;;;17.55;6.25;;;;;;;;;;4938649;29;20020;-58
2022/04/07 11:53:42;;;;;;;19.73;7.82;;;;;;;;;;4939667;29;20381;-58
2022/04/07 11:56:21;;;;;;;15.77;4.47;;;;;;;;;;4939103;29;20059;-58
2022/04/07 11:58:54;;;;;;;14.50;4.13;;;;;;;;;;4938573;29;20034;-57
2022/04/07 12:01:21;;;;;;;17.10;3.78;;;;;;;;;;4938897;29;20024;-59
2022/04/07 12:03:52;;;;;;;20.10;4.40;;;;;;;;;;4938236;29;20042;-55
2022/04/07 12:06:21;;;;;;;14.02;4.13;;;;;;;;;;4938839;29;20082;-57
2022/04/07 12:08:47;;;;;;;15.30;3.53;;;;;;;;;;4938656;29;20420;-57
2022/04/07 12:11:14;;;;;;;18.67;3.80;;;;;;;;;;4938529;29;20370;-56
2022/04/07 12:13:40;;;;;;;13.00;4.20;;;;;;;;;;4938456;29;20426;-59
2022/04/07 12:16:09;;;;;;;16.67;4.78;;;;;;;;;;4938391;29;20019;-58
2022/04/07 12:18:36;;;;;;;21.02;4.68;;;;;;;;;;4938265;29;20106;-57
2022/04/07 12:21:05;;;;;;;21.58;5.30;;;;;;;;;;4938210;29;20110;-58
2022/04/07 12:23:31;;;;;;;20.13;6.20;;;;;;;;;;4938156;29;20489;-57
2022/04/07 12:25:59;;;;;;;19.08;4.95;;;;;;;;;;4937947;29;20465;-58
2022/04/07 12:28:32;;;;;;;12.07;4.03;;;;;;;;;;4938457;29;20077;-57
2022/04/07 12:30:58;;;;;;;21.30;5.40;;;;;;;;;;4938183;29;20028;-57
2022/04/07 12:33:44;;;;;;;14.02;4.53;;;;;;;;;;4937954;29;20031;-57
2022/04/07 12:36:11;;;;;;;14.82;4.63;;;;;;;;;;4938596;29;20020;-55
2022/04/07 12:38:38;;;;;;;14.02;4.15;;;;;;;;;;4937785;29;20024;-57
2022/04/07 12:41:12;;;;;;;26.38;8.07;;;;;;;;;;4938002;29;20028;-57
2022/04/07 12:43:51;;;;;;;19.80;6.80;;;;;;;;;;4938491;29;20047;-58
2022/04/07 12:46:21;;;;;;;8.18;3.28;;;;;;;;;;4937832;29;20032;-59
2022/04/07 12:49:00;;;;;;;12.57;2.88;;;;;;;;;;4938020;29;20034;-60
2022/04/07 12:51:26;;;;;;;14.55;3.88;;;;;;;;;;4936637;29;20130;-58
2022/04/07 12:54:04;;;;;;;21.90;5.55;;;;;;;;;;4937080;29;20093;-57
2022/04/07 12:56:30;;;;;;;19.42;6.00;;;;;;;;;;4938248;29;20050;-57
2022/04/07 12:59:03;;;;;;;20.30;5.97;;;;;;;;;;4937820;29;20461;-57
2022/04/07 13:01:33;;;;;;;20.48;6.22;;;;;;;;;;4937762;29;20027;-59
2022/04/07 13:03:59;;;;;;;16.20;5.50;;;;;;;;;;4939150;29;20448;-58
2022/04/07 13:06:25;;;;;;;18.40;6.00;;;;;;;;;;4938162;29;20028;-59
2022/04/07 13:08:52;;;;;;;18.10;6.45;;;;;;;;;;4937528;29;20111;-58
2022/04/07 13:11:44;;;;;;;13.88;5.80;;;;;;;;;;4937672;29;20020;-58
2022/04/07 13:14:11;;;;;;;18.23;8.38;;;;;;;;;;4934554;29;20038;-57
2022/04/07 13:16:38;;;;;;;13.00;3.72;;;;;;;;;;4936720;29;20440;-58
2022/04/07 13:19:05;;;;;;;9.60;3.03;;;;;;;;;;4936745;29;20082;-58
2022/04/07 13:21:33;;;;;;;12.20;3.53;;;;;;;;;;4937244;29;20032;-57
2022/04/07 13:24:00;;;;;;;13.73;3.47;;;;;;;;;;4937259;29;20051;-56
2022/04/07 13:26:26;;;;;;;10.80;3.05;;;;;;;;;;4937480;29;20102;-57
2022/04/07 13:28:53;;;;;;;15.07;3.92;;;;;;;;;;4937166;29;20038;-58
2022/04/07 13:31:21;;;;;;;18.58;4.35;;;;;;;;;;4937317;29;20042;-58
2022/04/07 13:33:47;;;;;;;13.45;4.00;;;;;;;;;;4937202;29;20137;-57
2022/04/07 13:36:14;;;;;;;14.75;3.90;;;;;;;;;;4936452;29;20103;-58
2022/04/07 13:38:40;;;;;;;11.63;4.40;;;;;;;;;;4936904;29;20087;-58
2022/04/07 13:41:06;;;;;;;14.93;6.05;;;;;;;;;;4936983;29;20023;-58
2022/04/07 13:43:33;;;;;;;12.10;4.63;;;;;;;;;;4936820;29;20067;-58
2022/04/07 13:45:59;;;;;;;17.85;6.32;;;;;;;;;;4936960;29;20476;-58
2022/04/07 13:48:25;;;;;;;17.80;5.13;;;;;;;;;;4937274;29;20388;-59
2022/04/07 13:50:52;;;;;;;19.48;4.80;;;;;;;;;;4936863;29;20027;-57
2022/04/07 13:53:19;;;;;;;16.50;4.70;;;;;;;;;;4937697;29;20394;-58
2022/04/07 13:55:45;;;;;;;19.27;4.35;;;;;;;;;;4935745;29;20482;-59
2022/04/07 13:58:11;;;;;;;16.60;4.63;;;;;;;;;;4935582;29;20393;-58
2022/04/07 14:00:42;;;;;;;13.48;4.13;;;;;;;;;;4935083;29;20040;-59
2022/04/07 14:03:08;;;;;;;15.77;4.45;;;;;;;;;;4934938;29;20051;-59
2022/04/07 14:05:34;;;;;;;12.55;4.10;;;;;;;;;;4934711;29;20068;-59
2022/04/07 14:08:01;;;;;;;14.27;3.97;;;;;;;;;;4934424;29;20024;-58
2022/04/07 14:10:27;;;;;;;12.45;4.25;;;;;;;;;;4934584;29;20110;-60
2022/04/07 14:12:53;;;;;;;9.93;4.13;;;;;;;;;;4935652;29;20020;-57
2022/04/07 14:15:20;;;;;;;17.70;4.05;;;;;;;;;;4936715;29;20027;-59
2022/04/07 14:17:46;;;;;;;14.43;4.50;;;;;;;;;;4935929;29;20115;-59
2022/04/07 14:20:13;;;;;;;16.42;4.80;;;;;;;;;;4935727;29;20028;-59
2022/04/07 14:22:42;;;;;;;13.52;3.22;;;;;;;;;;4936251;29;20035;-58
2022/04/07 14:25:09;;;;;;;15.20;3.90;;;;;;;;;;4935927;29;20063;-57
2022/04/07 14:27:35;;;;;;;13.63;4.50;;;;;;;;;;4936174;29;20034;-58
2022/04/07 14:30:02;;;;;;;13.30;4.45;;;;;;;;;;4936480;29;20032;-58